Time;durP1;ratioP1;P1;durP2;ratioP2;P2;SDS_P1;SDS_P2;PMS_P1;PMS_P2;Temp;Humidity;BMP_temperature;BMP_pressure;BME280_temperature;BME280_humidity;BME280_pressure;Samples;Min_cycle;Max_cycle;Signal;HPM_P1;HPM_P2
2022/08/31 00:04:49;;;;;;;5.25;3.35;;;;;;;22.36;54.91;99822.22;7764317;32;37938;-73
2022/08/31 00:09:06;;;;;;;8.10;3.65;;;;;;;22.35;53.83;99820.56;7764303;32;37152;-73
2022/08/31 00:13:23;;;;;;;8.98;3.30;;;;;;;22.16;53.91;99814.81;7764246;32;39284;-73
2022/08/31 00:17:40;;;;;;;7.18;3.50;;;;;;;22.19;53.16;99812.13;7764002;32;40845;-73
2022/08/31 00:21:57;;;;;;;7.65;3.65;;;;;;;21.75;54.37;99812.75;7764442;32;37953;-73
2022/08/31 00:26:13;;;;;;;7.53;3.95;;;;;;;21.84;55.66;99806.28;7764022;32;36972;-73
2022/08/31 00:30:30;;;;;;;10.23;3.40;;;;;;;21.81;56.15;99809.75;7763831;32;39344;-73
2022/08/31 00:34:46;;;;;;;10.18;3.75;;;;;;;21.83;56.54;99815.75;7762913;32;40709;-74
2022/08/31 00:39:04;;;;;;;8.45;3.30;;;;;;;21.72;56.52;99818.19;7763341;32;38019;-73
2022/08/31 00:43:44;;;;;;;12.88;3.70;;;;;;;21.89;55.74;99819.94;7763448;32;36233;-73
2022/08/31 00:48:00;;;;;;;6.28;3.78;;;;;;;21.70;56.50;99823.28;7765402;32;37867;-74
2022/08/31 00:52:23;;;;;;;10.60;4.00;;;;;;;21.59;56.72;99828.44;7764621;32;40776;-73
2022/08/31 00:56:40;;;;;;;;;;;;;;;21.95;55.63;99840.72;7794320;32;38071;-73
2022/08/31 01:00:58;;;;;;;7.22;3.83;;;;;;;21.67;56.71;99840.63;7794077;32;37628;-73
2022/08/31 01:05:15;;;;;;;9.45;3.80;;;;;;;21.60;56.92;99845.94;7793930;32;39297;-73
2022/08/31 01:09:36;;;;;;;7.25;3.33;;;;;;;21.47;57.42;99853.41;7793786;32;40704;-73
2022/08/31 01:13:53;;;;;;;7.10;3.67;;;;;;;21.44;57.35;99863.19;7793692;32;38701;-73
2022/08/31 01:18:09;;;;;;;12.40;3.78;;;;;;;21.52;57.51;99850.41;7791944;32;36752;-73
2022/08/31 01:23:04;;;;;;;11.07;4.00;;;;;;;21.48;58.16;99849.47;7778982;32;40091;-73
2022/08/31 01:27:26;;;;;;;10.00;3.85;;;;;;;21.50;58.08;99838.84;7790402;32;40735;-72
2022/08/31 01:31:45;;;;;;;6.80;4.03;;;;;;;21.57;57.41;99852.97;7755270;32;38685;-73
2022/08/31 01:36:01;;;;;;;6.82;3.65;;;;;;;21.43;57.14;99852.44;7752237;32;36930;-72
2022/08/31 01:40:17;;;;;;;6.35;3.87;;;;;;;21.38;57.11;99843.19;7781857;32;39522;-73
2022/08/31 01:44:34;;;;;;;5.25;3.40;;;;;;;21.48;56.50;99849.47;7793514;32;39872;-73
2022/08/31 01:48:51;;;;;;;8.85;4.20;;;;;;;21.25;57.28;99852.62;7787815;32;38003;-73
2022/08/31 01:53:07;;;;;;;5.90;3.70;;;;;;;21.26;56.87;99850.66;7766167;32;37025;-73
2022/08/31 01:57:23;;;;;;;9.90;3.97;;;;;;;21.39;56.51;99853.12;7765873;32;39819;-72
2022/08/31 02:01:52;;;;;;;7.90;3.87;;;;;;;21.40;56.80;99853.94;7765461;32;40597;-73
2022/08/31 02:06:10;;;;;;;9.35;4.15;;;;;;;21.08;58.10;99859.16;7765983;32;38173;-73
2022/08/31 02:10:26;;;;;;;11.90;4.32;;;;;;;21.00;58.27;99868.34;7765511;32;38076;-73
2022/08/31 02:14:42;;;;;;;9.95;4.40;;;;;;;20.92;58.41;99853.44;7791774;32;39747;-72
2022/08/31 02:18:59;;;;;;;9.38;4.10;;;;;;;20.93;58.56;99852.28;7792774;32;39861;-72
2022/08/31 02:23:15;;;;;;;6.78;3.53;;;;;;;20.97;58.85;99849.63;7781771;32;38559;-72
2022/08/31 02:27:31;;;;;;;8.38;3.72;;;;;;;20.98;59.09;99849.31;7765723;32;37733;-73
2022/08/31 02:31:47;;;;;;;8.60;3.67;;;;;;;21.23;58.10;99838.31;7766485;32;40193;-73
2022/08/31 02:36:04;;;;;;;5.85;3.53;;;;;;;20.94;58.67;99847.56;7792564;32;39859;-72
2022/08/31 02:40:20;;;;;;;7.43;3.58;;;;;;;20.91;58.65;99842.69;7778451;32;38725;-73
2022/08/31 02:44:37;;;;;;;8.70;3.78;;;;;;;20.91;58.47;99842.69;7773280;32;37676;-73
2022/08/31 02:48:53;;;;;;;7.68;3.78;;;;;;;20.67;59.27;99846.97;7765414;32;39440;-71
2022/08/31 02:53:11;;;;;;;9.80;3.80;;;;;;;20.95;58.08;99836.13;7790171;32;40828;-72
2022/08/31 02:57:27;;;;;;;7.32;4.50;;;;;;;21.18;58.32;99835.75;7792538;32;38396;-72
2022/08/31 03:01:43;;;;;;;8.32;3.85;;;;;;;20.89;58.63;99840.28;7776565;32;36702;-72
2022/08/31 03:05:59;;;;;;;12.45;4.15;;;;;;;20.84;58.64;99837.72;7765341;32;39904;-72
2022/08/31 03:10:19;;;;;;;7.68;3.58;;;;;;;20.87;58.44;99845.34;7780356;32;40822;-72
2022/08/31 03:14:35;;;;;;;7.62;3.95;;;;;;;20.75;58.46;99840.56;7792305;32;37949;-73
2022/08/31 03:18:52;;;;;;;9.07;4.18;;;;;;;20.55;59.02;99847.69;7784328;32;36980;-72
2022/08/31 03:23:08;;;;;;;11.70;4.30;;;;;;;20.75;58.25;99846.09;7765037;32;39995;-73
2022/08/31 03:27:25;;;;;;;6.87;3.95;;;;;;;20.54;58.69;99842.47;7773573;32;40018;-72
2022/08/31 03:31:41;;;;;;;11.50;4.05;;;;;;;20.76;57.78;99844.12;7791988;32;37685;-73
2022/08/31 03:35:58;;;;;;;8.73;3.95;;;;;;;20.51;58.14;99852.28;7791835;32;37298;-72
2022/08/31 03:40:14;;;;;;;8.55;3.87;;;;;;;20.56;58.11;99849.31;7774085;32;39221;-72
2022/08/31 03:44:30;;;;;;;11.98;4.40;;;;;;;20.85;56.99;99844.06;7764615;32;39865;-73
2022/08/31 03:48:46;;;;;;;9.15;4.00;;;;;;;20.67;57.31;99846.97;7781301;32;38684;-72
2022/08/31 03:53:03;;;;;;;8.13;3.90;;;;;;;20.51;57.88;99846.75;7791736;32;37836;-72
2022/08/31 03:57:19;;;;;;;9.48;4.00;;;;;;;20.49;57.50;99837.97;7783569;32;39125;-72
2022/08/31 04:01:36;;;;;;;8.00;3.92;;;;;;;20.41;58.04;99842.41;7764388;32;40600;-72
2022/08/31 04:05:54;;;;;;;10.52;4.20;;;;;;;20.44;59.46;99854.78;7764312;32;38656;-72
2022/08/31 04:10:12;;;;;;;8.63;3.87;;;;;;;20.26;59.75;99849.37;7790130;32;37118;-73
2022/08/31 04:14:28;;;;;;;10.20;4.55;;;;;;;20.62;58.10;99853.50;7780057;32;40081;-71
2022/08/31 04:18:44;;;;;;;6.07;3.87;;;;;;;20.69;58.75;99857.72;7763978;32;40804;-76
2022/08/31 04:23:00;;;;;;;8.65;3.30;;;;;;;20.86;58.59;99852.03;7756400;32;38625;-75
2022/08/31 04:27:17;;;;;;;6.05;3.42;;;;;;;20.88;57.82;99852.50;7799861;32;37005;-77
2022/08/31 04:31:35;;;;;;;7.05;4.22;;;;;;;20.70;56.17;99857.38;7799603;32;40010;-76
2022/08/31 04:35:51;;;;;;;7.70;3.62;;;;;;;20.85;58.82;99858.69;7798616;32;38381;-76
2022/08/31 04:40:16;;;;;;;7.90;3.40;;;;;;;20.74;59.21;99857.50;7796547;32;37571;-80
2022/08/31 04:44:33;;;;;;;5.00;3.47;;;;;;;20.79;59.11;99857.31;7772407;32;37804;-78
2022/08/31 04:48:50;;;;;;;11.15;3.62;;;;;;;20.94;58.09;99861.44;7786316;32;40165;-72
2022/08/31 04:53:06;;;;;;;8.43;3.30;;;;;;;20.91;56.59;99859.31;7793411;32;40852;-71
2022/08/31 04:57:22;;;;;;;11.85;3.87;;;;;;;20.81;56.22;99864.13;7799199;32;38135;-72
2022/08/31 05:01:43;;;;;;;8.73;3.92;;;;;;;20.76;56.71;99863.53;7789961;32;37289;-72
2022/08/31 05:05:59;;;;;;;7.60;3.67;;;;;;;20.62;57.65;99870.13;7799198;32;39462;-77
2022/08/31 05:10:15;;;;;;;8.68;3.90;;;;;;;20.69;56.80;99868.78;7797633;32;40754;-72
2022/08/31 05:14:34;;;;;;;8.27;4.03;;;;;;;20.79;56.40;99862.84;7774902;32;38109;-73
2022/08/31 05:18:51;;;;;;;8.93;4.10;;;;;;;20.76;58.26;99872.63;7771467;32;37768;-73
2022/08/31 05:23:07;;;;;;;10.23;4.28;;;;;;;20.83;58.51;99877.63;7769605;32;39960;-72
2022/08/31 05:27:23;;;;;;;12.02;4.45;;;;;;;20.88;58.39;99876.63;7766926;32;39846;-72
2022/08/31 05:31:40;;;;;;;6.07;3.90;;;;;;;20.91;58.34;99876.75;7767322;32;37865;-72
2022/08/31 05:35:59;;;;;;;7.07;4.00;;;;;;;20.90;58.66;99879.87;7761373;32;37065;-72
2022/08/31 05:40:15;;;;;;;8.20;4.25;;;;;;;21.04;58.51;99885.13;7765598;32;39046;-72
2022/08/31 05:44:34;;;;;;;6.72;3.70;;;;;;;21.14;58.62;99890.25;7766125;32;39875;-72
2022/08/31 05:48:50;;;;;;;7.65;3.70;;;;;;;21.29;58.12;99886.03;7765573;32;37648;-72
2022/08/31 05:53:06;;;;;;;9.35;4.10;;;;;;;21.30;58.17;99888.47;7766174;32;37061;-72
2022/08/31 05:57:22;;;;;;;8.13;3.60;;;;;;;21.44;57.61;99892.88;8029754;26;39353;-88
2022/08/31 06:01:41;;;;;;;6.95;3.37;;;;;;;21.79;55.36;99898.09;7738581;32;40522;-84
2022/08/31 06:05:57;;;;;;;13.10;4.15;;;;;;;21.39;56.15;99903.03;7738637;32;36486;-85
2022/08/31 06:10:14;;;;;;;10.35;3.40;;;;;;;21.96;54.79;99894.28;7738991;32;37052;-84
2022/08/31 06:14:31;;;;;;;10.27;3.50;;;;;;;21.63;54.79;99901.53;7738891;32;39496;-82
2022/08/31 06:18:51;;;;;;;5.90;3.50;;;;;;;21.58;55.74;99898.97;7738992;32;39768;-88
2022/08/31 06:23:08;;;;;;;6.20;3.40;;;;;;;22.11;53.46;99904.69;7738619;32;36628;-86
2022/08/31 06:27:25;;;;;;;4.85;3.30;;;;;;;21.98;53.29;99903.06;7725001;32;37361;-84
2022/08/31 06:31:45;;;;;;;5.22;2.97;;;;;;;22.33;52.82;99909.00;7738624;32;39642;-84
2022/08/31 06:36:01;;;;;;;8.13;3.17;;;;;;;22.72;52.33;99905.81;7738642;32;39802;-86
2022/08/31 06:40:18;;;;;;;5.70;3.28;;;;;;;22.72;53.21;99911.38;7737881;32;38644;-87
2022/08/31 06:44:35;;;;;;;6.75;3.47;;;;;;;22.42;53.29;99909.69;7738224;32;37058;-84
2022/08/31 06:48:55;;;;;;;9.77;3.53;;;;;;;22.66;53.83;99908.00;7738455;32;39269;-84
2022/08/31 06:53:11;;;;;;;8.30;3.08;;;;;;;22.98;52.47;99913.75;7737460;32;40710;-86
2022/08/31 06:57:27;;;;;;;12.20;3.35;;;;;;;23.17;52.40;99905.56;7737900;32;38095;-84
2022/08/31 07:01:43;;;;;;;8.38;3.17;;;;;;;22.98;52.42;99913.75;7737827;32;37785;-86
2022/08/31 07:06:03;;;;;;;6.68;3.20;;;;;;;23.15;51.79;99918.22;7724296;32;40094;-86
2022/08/31 07:10:19;;;;;;;5.72;3.53;;;;;;;23.15;52.47;99912.66;7738140;32;39907;-87
2022/08/31 07:14:36;;;;;;;5.43;3.00;;;;;;;23.23;52.59;99915.28;7751973;32;38530;-87
2022/08/31 07:18:54;;;;;;;5.53;3.17;;;;;;;23.25;52.44;99912.97;7742341;32;37148;-85
2022/08/31 07:23:10;;;;;;;7.47;3.05;;;;;;;23.31;51.36;99921.84;7738053;32;40034;-87
2022/08/31 07:27:26;;;;;;;4.37;2.78;;;;;;;23.74;49.80;99914.66;7738051;32;40747;-87
2022/08/31 07:31:46;;;;;;;5.10;3.10;;;;;;;23.88;50.68;99916.22;7737934;32;38656;-87
2022/08/31 07:36:03;;;;;;;8.00;3.25;;;;;;;24.15;49.68;99909.75;7738019;32;36999;-88
2022/08/31 07:44:59;;;;;;;4.28;2.72;;;;;;;24.91;46.09;99905.91;7736677;32;41007;-87
2022/08/31 07:49:16;;;;;;;3.97;2.50;;;;;;;25.32;44.90;99909.16;7737646;32;38019;-87
2022/08/31 07:53:40;;;;;;;4.65;3.15;;;;;;;25.67;42.87;99899.84;7737236;32;38069;-88
2022/08/31 07:57:57;;;;;;;3.85;2.40;;;;;;;26.09;41.15;99910.16;7736708;32;39423;-89
2022/08/31 08:02:15;;;;;;;5.00;2.72;;;;;;;26.19;39.90;99895.53;7722668;32;39710;-90
2022/08/31 08:06:32;;;;;;;4.40;2.78;;;;;;;26.50;40.26;99896.41;7737214;32;36446;-86
2022/08/31 08:10:49;;;;;;;5.85;2.97;;;;;;;26.64;40.70;99889.44;7737196;32;36896;-88
2022/08/31 08:15:08;;;;;;;5.75;2.90;;;;;;;26.72;37.56;99888.34;7736216;32;39273;-87
2022/08/31 08:19:25;;;;;;;4.90;3.00;;;;;;;26.71;36.16;99876.34;7737311;32;39788;-89
2022/08/31 08:23:41;;;;;;;7.30;2.78;;;;;;;26.90;35.72;99875.38;7734428;32;37596;-89
2022/08/31 08:27:57;;;;;;;6.37;2.83;;;;;;;26.95;35.99;99880.66;7734613;32;37459;-86
2022/08/31 08:32:13;;;;;;;6.25;2.83;;;;;;;27.03;35.14;99863.94;7736746;32;40026;-86
2022/08/31 08:36:34;;;;;;;5.37;2.90;;;;;;;27.18;34.10;99876.91;7737266;32;40128;-89
2022/08/31 08:40:51;;;;;;;5.65;2.80;;;;;;;27.18;34.01;99876.91;7736485;32;37765;-86
2022/08/31 08:45:08;;;;;;;12.02;2.75;;;;;;;27.35;37.33;99869.94;7735624;32;36858;-84
2022/08/31 08:49:27;;;;;;;5.85;3.00;;;;;;;27.93;35.05;99871.31;7722597;32;40112;-86
2022/08/31 08:53:45;;;;;;;4.75;2.67;;;;;;;27.70;35.13;99875.09;7736020;32;40721;-84
2022/08/31 08:58:04;;;;;;;5.25;2.60;;;;;;;27.35;35.60;99865.16;7722001;32;38487;-84
2022/08/31 09:02:27;;;;;;;4.62;2.85;;;;;;;27.99;36.31;99868.94;7721447;32;37021;-85
2022/08/31 09:06:48;;;;;;;4.25;2.53;;;;;;;27.97;33.88;99871.34;7722017;32;39113;-86
2022/08/31 09:11:17;;;;;;;5.97;2.60;;;;;;;27.95;34.60;99854.91;7738883;32;40749;-86
2022/08/31 09:16:10;;;;;;;4.65;2.33;;;;;;;28.34;36.28;99848.78;7725620;32;38618;-88
2022/08/31 09:20:27;;;;;;;4.72;2.70;;;;;;;28.20;33.23;99851.47;7704260;32;37205;-86
2022/08/31 09:24:43;;;;;;;4.95;2.67;;;;;;;28.69;33.79;99844.56;7739448;32;39950;-89
2022/08/31 09:29:02;;;;;;;4.78;2.80;;;;;;;29.05;33.16;99846.72;7725596;32;40750;-84
2022/08/31 09:33:26;;;;;;;7.65;3.25;;;;;;;28.62;34.02;99834.13;7729989;32;294442;-90
2022/08/31 09:37:45;;;;;;;4.00;2.58;;;;;;;29.28;34.28;99835.16;7725796;32;37128;-87
2022/08/31 09:42:11;;;;;;;4.18;2.70;;;;;;;29.47;33.77;99826.34;7739281;32;40143;-87
2022/08/31 09:46:30;;;;;;;4.35;2.55;;;;;;;29.44;29.99;99823.56;7726671;32;40760;-90
2022/08/31 09:50:59;;;;;;;4.57;2.87;;;;;;;29.58;30.74;99821.56;7738723;32;38737;-89
2022/08/31 09:55:23;;;;;;;6.10;2.70;;;;;;;29.52;30.74;99817.53;7726678;32;36994;-90
2022/08/31 09:59:48;;;;;;;4.72;2.50;;;;;;;29.61;33.28;99816.34;7738783;32;39162;-88
2022/08/31 10:04:25;;;;;;;6.20;2.62;;;;;;;30.21;31.19;99803.47;7725718;32;39891;-87
2022/08/31 10:08:52;;;;;;;5.47;2.60;;;;;;;30.62;31.72;99791.72;7738854;32;38467;-89
2022/08/31 10:13:14;;;;;;;3.50;2.30;;;;;;;30.61;30.24;99790.88;7738596;32;37061;-86
2022/08/31 10:17:36;;;;;;;;;;;;;;;30.98;29.36;99786.72;7739212;32;39251;-84
2022/08/31 10:21:55;;;;;;;3.43;2.13;;;;;;;31.35;28.81;99781.63;7738215;32;40183;-86
2022/08/31 10:26:32;;;;;;;9.93;2.85;;;;;;;31.37;27.52;99790.47;7738421;32;37850;-85
2022/08/31 10:30:59;;;;;;;3.55;2.28;;;;;;;31.20;27.55;99778.94;7726230;32;37788;-87
2022/08/31 10:35:43;;;;;;;3.45;2.42;;;;;;;31.25;27.73;99764.41;7725516;32;40115;-87
2022/08/31 10:40:40;;;;;;;4.53;2.50;;;;;;;31.69;26.16;99764.87;7725568;32;40567;-87
2022/08/31 10:45:03;;;;;;;4.32;2.42;;;;;;;31.25;27.32;99761.59;7732202;32;38729;-88
2022/08/31 10:49:22;;;;;;;3.67;2.40;;;;;;;31.58;26.40;99761.34;7737439;32;37073;-85
2022/08/31 10:54:00;;;;;;;3.70;2.03;;;;;;;31.42;26.40;99754.19;7740160;32;39289;-84
2022/08/31 10:58:25;;;;;;;4.18;2.40;;;;;;;32.11;26.02;99754.41;7739148;32;40019;-86
2022/08/31 11:03:12;;;;;;;5.82;2.28;;;;;;;32.30;26.92;99744.50;7747909;32;37909;-84
2022/08/31 11:07:50;;;;;;;4.57;2.40;;;;;;;31.79;25.22;99744.25;7738509;32;37127;-87
2022/08/31 11:12:10;;;;;;;3.75;2.17;;;;;;;32.23;25.38;99738.97;7722661;32;39489;-81
2022/08/31 11:16:26;;;;;;;4.72;2.00;;;;;;;32.81;24.20;99744.69;7724717;32;39938;-87
2022/08/31 11:20:50;;;;;;;4.82;2.08;;;;;;;32.80;23.62;99731.00;7737569;32;37661;-88
2022/08/31 11:25:28;;;;;;;4.00;2.17;;;;;;;32.72;23.57;99730.31;8074624;26;37102;-71
2022/08/31 11:29:57;;;;;;;4.00;2.35;;;;;;;33.26;23.98;99716.19;7656737;32;37406;-71
2022/08/31 11:34:21;;;;;;;4.60;2.12;;;;;;;33.12;23.03;99720.00;7652923;32;40107;-71
2022/08/31 11:39:00;;;;;;;2.92;2.20;;;;;;;32.70;23.63;99715.81;7662445;32;38728;-72
2022/08/31 11:43:32;;;;;;;16.58;2.75;;;;;;;33.02;24.02;99712.50;7656655;32;37837;-72
2022/08/31 11:47:50;;;;;;;5.37;2.45;;;;;;;32.94;23.14;99713.84;7657258;32;39147;-72
2022/08/31 11:52:31;;;;;;;6.78;2.40;;;;;;;33.28;23.90;99705.25;7657504;32;40163;-72
2022/08/31 11:56:47;;;;;;;5.18;2.50;;;;;;;32.55;23.62;99710.34;7651740;32;37922;-73
2022/08/31 12:01:11;;;;;;;3.55;2.17;;;;;;;33.10;23.57;99704.72;7637516;32;37367;-73
2022/08/31 12:05:55;;;;;;;4.93;2.35;;;;;;;32.85;23.63;99697.44;7646929;32;39363;-72
2022/08/31 12:10:37;;;;;;;4.82;2.37;;;;;;;33.62;24.58;99701.44;7683631;32;39947;-72
2022/08/31 12:14:58;;;;;;;;;;;;;;;33.83;22.45;99697.41;7682144;32;38118;-71
2022/08/31 12:24:07;;;;;;;6.00;2.30;;;;;;;34.03;23.08;99691.78;7656772;32;39272;-72
2022/08/31 12:28:58;;;;;;;5.25;2.30;;;;;;;34.59;22.49;99681.72;7650643;32;39973;-72
2022/08/31 12:33:19;;;;;;;3.40;2.10;;;;;;;34.12;22.35;99684.75;7653854;32;37713;-73
2022/08/31 12:37:37;;;;;;;3.22;2.25;;;;;;;32.68;23.27;99690.03;7655348;32;37033;-73
2022/08/31 12:42:02;;;;;;;3.72;2.37;;;;;;;32.08;24.72;99681.97;7656402;32;40194;-71
2022/08/31 12:46:25;;;;;;;3.80;2.47;;;;;;;31.34;24.46;99685.09;7659451;32;39577;-72
2022/08/31 12:51:06;;;;;;;8.52;2.50;;;;;;;32.19;24.03;99676.97;7658775;32;37884;-72
2022/08/31 12:55:36;;;;;;;5.75;2.33;;;;;;;31.86;25.62;99669.28;7660114;32;37109;-72
2022/08/31 13:00:18;;;;;;;3.95;2.20;;;;;;;31.91;27.30;99674.47;7658871;32;39879;-72
2022/08/31 13:04:40;;;;;;;3.15;1.90;;;;;;;31.79;25.01;99682.25;7659920;32;40643;-73
2022/08/31 13:08:57;;;;;;;3.62;2.10;;;;;;;32.36;24.44;99663.06;7659975;32;37781;-74
2022/08/31 13:13:26;;;;;;;5.78;2.37;;;;;;;32.42;22.95;99669.81;7659852;32;37132;-74
2022/08/31 13:17:42;;;;;;;3.35;1.95;;;;;;;32.78;23.24;99663.69;7659798;32;39451;-74
2022/08/31 13:22:04;;;;;;;4.35;2.20;;;;;;;33.03;23.33;99656.81;7659654;32;40957;-74
2022/08/31 13:26:24;;;;;;;3.95;2.37;;;;;;;31.97;23.48;99655.88;7659518;32;38591;-74
2022/08/31 13:30:41;;;;;;;3.92;2.15;;;;;;;32.20;23.88;99660.84;7659568;32;38186;-74
2022/08/31 13:35:14;;;;;;;4.82;1.90;;;;;;;32.19;22.88;99662.88;7659601;32;39961;-73
2022/08/31 13:39:37;;;;;;;4.93;2.20;;;;;;;31.98;22.01;99654.66;7658326;32;39643;-74
2022/08/31 13:44:01;;;;;;;3.85;2.15;;;;;;;32.53;22.79;99653.53;7659086;32;38972;-73
2022/08/31 13:48:31;;;;;;;6.93;2.55;;;;;;;32.54;23.25;99646.66;7659336;32;37089;-74
2022/08/31 13:52:49;;;;;;;4.05;2.42;;;;;;;32.82;25.68;99641.84;7652092;32;40038;-73
2022/08/31 13:57:27;;;;;;;5.07;2.30;;;;;;;32.81;26.79;99639.47;7653401;32;40163;-73
2022/08/31 14:01:54;;;;;;;3.53;1.98;;;;;;;33.15;26.71;99636.50;7608368;32;37896;-74
2022/08/31 14:06:22;;;;;;;4.22;2.22;;;;;;;33.44;26.67;99639.59;7606501;32;37626;-74
2022/08/31 14:10:45;;;;;;;4.97;2.33;;;;;;;33.49;25.98;99641.91;7606278;32;40147;-74
2022/08/31 14:15:08;;;;;;;5.15;1.95;;;;;;;33.87;24.10;99626.66;7606531;32;39825;-70
2022/08/31 14:19:32;;;;;;;5.75;2.42;;;;;;;33.99;25.14;99628.03;7606424;32;37801;-74
2022/08/31 14:24:01;;;;;;;3.35;2.20;;;;;;;34.04;23.35;99628.31;7606311;32;36774;-75
2022/08/31 14:28:18;;;;;;;7.85;2.58;;;;;;;34.26;24.52;99630.72;7606186;32;39505;-74
2022/08/31 14:32:34;;;;;;;3.80;2.25;;;;;;;33.93;24.54;99630.59;7606234;32;40676;-74
2022/08/31 14:36:56;;;;;;;4.50;2.10;;;;;;;33.92;26.22;99626.16;7606498;32;37966;-74
2022/08/31 14:41:15;;;;;;;2.62;2.03;;;;;;;33.91;26.24;99618.94;7606154;32;37598;-73
2022/08/31 14:45:31;;;;;;;5.97;2.28;;;;;;;33.85;25.92;99609.34;7606116;32;39277;-74
2022/08/31 14:49:48;;;;;;;3.97;2.25;;;;;;;33.61;26.40;99606.56;7592725;32;39992;-74
2022/08/31 14:54:06;;;;;;;3.55;2.25;;;;;;;33.72;25.99;99620.53;7605962;32;37871;-74
2022/08/31 14:58:22;;;;;;;6.25;2.40;;;;;;;33.76;25.78;99623.28;7606138;32;38227;-74
2022/08/31 15:02:39;;;;;;;3.85;2.42;;;;;;;33.45;26.83;99623.44;7606082;32;39802;-74
2022/08/31 15:07:02;;;;;;;3.35;2.33;;;;;;;33.44;25.92;99622.66;7605906;32;40103;-74
2022/08/31 15:11:25;;;;;;;3.42;2.22;;;;;;;33.01;27.34;99617.72;7593823;32;38811;-73
2022/08/31 15:15:41;;;;;;;4.07;2.15;;;;;;;32.60;27.32;99617.97;7605751;32;38104;-74
2022/08/31 15:20:04;;;;;;;4.57;2.40;;;;;;;32.49;28.38;99613.28;7605904;32;40164;-74
2022/08/31 15:24:23;;;;;;;4.00;2.20;;;;;;;32.07;28.91;99620.34;7605678;32;38923;-73
2022/08/31 15:28:40;;;;;;;6.78;2.42;;;;;;;31.92;29.21;99622.50;7605592;32;36889;-74
2022/08/31 15:32:58;;;;;;;5.35;2.37;;;;;;;31.67;29.82;99605.91;7592277;32;37022;-74
2022/08/31 15:37:14;;;;;;;4.93;2.30;;;;;;;31.45;31.16;99606.91;7592359;32;39208;-73
2022/08/31 15:41:31;;;;;;;3.45;2.17;;;;;;;31.13;31.30;99609.25;7605501;32;40912;-74
2022/08/31 15:45:47;;;;;;;11.38;2.65;;;;;;;30.86;31.30;99604.25;7605518;32;38714;-73
2022/08/31 15:50:03;;;;;;;5.90;2.50;;;;;;;30.59;32.02;99607.66;7605326;32;38005;-73
2022/08/31 15:54:25;;;;;;;7.97;2.60;;;;;;;30.33;33.21;99604.19;7605136;32;39544;-74
2022/08/31 15:58:42;;;;;;;;;;;;;;;30.19;33.56;99604.28;7597607;32;39774;-73
2022/08/31 16:03:00;;;;;;;4.60;2.80;;;;;;;30.11;33.73;99600.72;7605098;32;39043;-74
2022/08/31 16:07:16;;;;;;;6.30;2.62;;;;;;;29.90;34.59;99601.59;7605164;32;36778;-74
2022/08/31 16:11:34;;;;;;;6.45;2.45;;;;;;;29.71;36.39;99605.66;7604939;32;39425;-74
2022/08/31 16:15:52;;;;;;;4.97;2.75;;;;;;;29.45;37.90;99612.56;7604836;32;39944;-74
2022/08/31 16:20:10;;;;;;;6.87;2.50;;;;;;;29.31;37.66;99604.19;7604138;32;38510;-73
2022/08/31 16:24:27;;;;;;;3.97;2.35;;;;;;;29.15;37.92;99599.75;7604698;32;35996;-73
2022/08/31 16:28:45;;;;;;;5.93;2.67;;;;;;;28.92;38.24;99616.19;7608142;32;40069;-73
2022/08/31 16:33:01;;;;;;;8.90;2.72;;;;;;;28.78;37.68;99622.63;7605979;32;39668;-73
2022/08/31 16:37:17;;;;;;;4.75;2.78;;;;;;;28.64;38.17;99615.78;7604311;32;38018;-73
2022/08/31 16:41:34;;;;;;;3.60;2.60;;;;;;;28.42;39.00;99616.94;7603506;32;38828;-72
2022/08/31 16:45:51;;;;;;;5.32;2.45;;;;;;;28.31;39.75;99611.31;7598365;32;40315;-72
2022/08/31 16:50:08;;;;;;;7.80;2.55;;;;;;;28.30;38.27;99618.09;7603684;32;40775;-72
2022/08/31 16:54:27;;;;;;;7.03;2.78;;;;;;;28.07;39.52;99622.03;7604263;32;37980;-73
2022/08/31 16:58:43;;;;;;;9.63;2.90;;;;;;;28.03;40.08;99617.63;7603852;32;36978;-73
2022/08/31 17:03:07;;;;;;;9.80;2.67;;;;;;;27.80;40.66;99618.69;7603857;32;39298;-73
2022/08/31 17:07:24;;;;;;;8.73;3.08;;;;;;;27.61;41.89;99625.38;7603689;32;40849;-73
2022/08/31 17:11:46;;;;;;;9.45;2.70;;;;;;;27.57;42.12;99620.97;7603382;32;38450;-74
2022/08/31 17:16:02;;;;;;;8.97;3.17;;;;;;;27.51;42.43;99621.34;7603573;32;37030;-72
2022/08/31 17:20:18;;;;;;;6.07;3.03;;;;;;;27.27;43.09;99622.78;7602816;32;39217;-73
2022/08/31 17:24:37;;;;;;;6.30;2.95;;;;;;;27.18;43.07;99630.69;7603509;32;40087;-72
2022/08/31 17:28:59;;;;;;;21.17;3.90;;;;;;;26.85;44.17;99632.41;7603001;32;38063;-73
2022/08/31 17:33:15;;;;;;;6.95;2.80;;;;;;;26.87;43.78;99641.25;7607038;32;37243;-72
2022/08/31 17:37:35;;;;;;;6.00;2.92;;;;;;;26.64;45.16;99640.63;7606801;32;40218;-73
2022/08/31 17:41:51;;;;;;;7.37;2.60;;;;;;;26.54;45.26;99640.09;7607458;32;39211;-74
2022/08/31 17:46:12;;;;;;;3.47;2.47;;;;;;;26.46;44.17;99649.59;7605947;32;38089;-77
2022/08/31 17:50:30;;;;;;;7.57;3.28;;;;;;;26.50;43.52;99666.41;7607219;32;36829;-74
2022/08/31 17:54:49;;;;;;;7.30;3.00;;;;;;;26.06;43.33;99670.69;7607103;32;39045;-73
2022/08/31 17:59:05;;;;;;;5.78;2.67;;;;;;;25.96;43.64;99668.56;7612088;32;41585;-73
2022/08/31 18:03:23;;;;;;;5.95;2.92;;;;;;;26.04;41.12;99678.63;7626209;32;38941;-74
2022/08/31 18:07:40;;;;;;;3.78;2.80;;;;;;;25.66;39.80;99683.28;7621736;32;37272;-74
2022/08/31 18:11:59;;;;;;;7.35;2.62;;;;;;;25.62;39.77;99680.44;7609470;32;39951;-73
2022/08/31 18:16:18;;;;;;;2.87;2.00;;;;;;;25.76;38.69;99676.25;7632399;32;40053;-74
2022/08/31 18:20:38;;;;;;;8.60;2.40;;;;;;;25.67;38.09;99684.91;7604925;32;37943;-74
2022/08/31 18:24:56;;;;;;;3.53;2.30;;;;;;;25.66;37.62;99691.66;7610064;32;37021;-74
2022/08/31 18:29:14;;;;;;;2.67;2.05;;;;;;;25.33;38.03;99687.56;7629056;32;39456;-74
2022/08/31 18:33:36;;;;;;;2.53;2.08;;;;;;;25.21;37.79;99690.53;7614120;32;40009;-74
2022/08/31 18:37:52;;;;;;;3.50;2.17;;;;;;;25.20;37.42;99700.06;7604091;32;37790;-74
2022/08/31 18:46:43;;;;;;;2.75;1.90;;;;;;;24.78;38.39;99706.50;7600681;32;39877;-75
2022/08/31 18:51:01;;;;;;;2.70;1.80;;;;;;;24.74;37.38;99729.53;7595441;32;40841;-73
2022/08/31 18:55:18;;;;;;;5.47;2.03;;;;;;;24.72;37.02;99737.47;7605537;32;37659;-73
2022/08/31 18:59:35;;;;;;;7.45;2.33;;;;;;;24.96;36.95;99738.31;7606323;32;36996;-74
2022/08/31 19:03:51;;;;;;;6.10;1.90;;;;;;;24.95;37.37;99731.12;7622070;32;40172;-72
2022/08/31 19:08:08;;;;;;;3.70;2.10;;;;;;;24.58;37.31;99730.81;7632347;32;39906;-72
2022/08/31 19:12:25;;;;;;;3.40;2.10;;;;;;;24.66;38.11;99727.00;7632129;32;38639;-72
2022/08/31 19:16:41;;;;;;;6.12;2.15;;;;;;;24.38;37.90;99734.37;7632040;32;37025;-72
2022/08/31 19:20:58;;;;;;;5.07;2.55;;;;;;;24.69;37.15;99738.19;7631981;32;39319;-72
2022/08/31 19:25:15;;;;;;;5.22;2.45;;;;;;;24.52;37.44;99733.84;7631849;32;41515;-72
2022/08/31 19:29:33;;;;;;;3.58;2.28;;;;;;;24.34;37.51;99739.06;7631731;32;38714;-72
2022/08/31 19:33:51;;;;;;;4.70;2.65;;;;;;;24.26;38.09;99747.66;7631753;32;37328;-72
2022/08/31 19:38:11;;;;;;;3.65;2.45;;;;;;;24.44;37.60;99731.28;7621626;32;39502;-72
2022/08/31 19:42:29;;;;;;;4.07;2.35;;;;;;;24.34;37.80;99721.56;7630834;32;40835;-72
2022/08/31 19:47:06;;;;;;;3.87;2.58;;;;;;;24.19;37.80;99731.59;7621172;32;38224;-73
2022/08/31 19:51:41;;;;;;;4.15;2.37;;;;;;;24.16;37.91;99735.09;7630531;32;37852;-72
2022/08/31 19:55:57;;;;;;;8.93;2.92;;;;;;;24.13;38.58;99738.62;7631462;32;39308;-72
2022/08/31 20:00:14;;;;;;;7.57;2.40;;;;;;;23.93;38.71;99744.16;7631309;32;39939;-73
2022/08/31 20:04:32;;;;;;;6.93;3.00;;;;;;;23.77;38.28;99741.37;7628738;32;37859;-73
2022/08/31 20:08:49;;;;;;;5.20;2.78;;;;;;;23.69;38.96;99747.16;7605192;32;37701;-72
2022/08/31 20:13:07;;;;;;;5.00;3.20;;;;;;;23.63;39.27;99750.22;7604960;32;40052;-71
2022/08/31 20:17:23;;;;;;;8.40;3.20;;;;;;;23.54;39.26;99752.38;7600171;32;40000;-71
2022/08/31 20:21:40;;;;;;;4.22;3.20;;;;;;;23.91;38.59;99743.72;7592211;32;37952;-71
2022/08/31 20:26:01;;;;;;;5.78;3.03;;;;;;;23.73;38.98;99748.84;7592859;32;37882;-72
2022/08/31 20:30:20;;;;;;;5.72;3.00;;;;;;;23.52;39.35;99732.44;7590798;32;39153;-71
2022/08/31 20:34:37;;;;;;;6.25;3.35;;;;;;;23.68;38.72;99731.59;7591458;32;40044;-71
2022/08/31 20:39:06;;;;;;;5.43;3.10;;;;;;;23.60;39.00;99734.22;7591549;32;38683;-72
2022/08/31 20:43:22;;;;;;;4.40;3.17;;;;;;;23.52;39.38;99738.00;7588732;32;36916;-71